Time;durP1;ratioP1;P1;durP2;ratioP2;P2;SDS_P1;SDS_P2;PMS_P1;PMS_P2;Temp;Humidity;BMP_temperature;BMP_pressure;BME280_temperature;BME280_humidity;BME280_pressure;Samples;Min_cycle;Max_cycle;Signal;HPM_P1;HPM_P2
2023/06/22 00:01:11;;;;;;;;;7.75;6.00;;;;;25.67;50.66;101212.44;5076067;28;45431;-73
2023/06/22 00:03:36;;;;;;;;;6.25;6.00;;;;;25.75;51.16;101233.53;5076083;27;45860;-72
2023/06/22 00:06:02;;;;;;;;;7.50;7.00;;;;;25.71;51.15;101214.03;5076886;28;45405;-72
2023/06/22 00:08:27;;;;;;;;;5.00;5.00;;;;;25.78;51.28;101233.34;5074336;27;46062;-72
2023/06/22 00:10:54;;;;;;;;;7.75;6.50;;;;;25.62;50.50;101198.44;5072760;28;45607;-73
2023/06/22 00:13:19;;;;;;;;;5.75;5.75;;;;;25.66;50.17;101204.50;5075762;28;45626;-73
2023/06/22 00:15:45;;;;;;;;;6.50;6.00;;;;;25.78;50.25;101223.47;5075015;28;45417;-74
2023/06/22 00:18:13;;;;;;;;;5.50;5.50;;;;;25.65;50.26;101206.34;5074525;28;46016;-74
2023/06/22 00:20:39;;;;;;;;;7.00;5.75;;;;;25.73;50.16;101214.81;5074949;28;45930;-74
2023/06/22 00:23:08;;;;;;;;;4.75;4.50;;;;;25.70;50.10;101206.06;5074947;27;45330;-73
2023/06/22 00:25:41;;;;;;;;;7.25;5.25;;;;;25.66;50.20;101199.16;5107690;27;45386;-73
2023/06/22 00:28:07;;;;;;;;;6.00;5.50;;;;;25.41;50.06;101154.84;5074129;28;45538;-73
2023/06/22 00:30:34;;;;;;;;;6.00;6.00;;;;;25.64;50.77;101201.91;5072786;27;45419;-73
2023/06/22 00:33:00;;;;;;;;;5.50;5.50;;;;;25.45;50.48;101169.81;5068899;27;45543;-73
2023/06/22 00:35:28;;;;;;;;;3.25;3.25;;;;;25.30;50.85;101149.22;5074149;28;45474;-73
2023/06/22 00:38:00;;;;;;;;;6.00;5.00;;;;;25.52;50.51;101186.47;5071922;27;45507;-74
2023/06/22 00:40:30;;;;;;;;;5.75;4.75;;;;;25.50;50.49;101183.84;5071010;28;45473;-73
2023/06/22 00:42:56;;;;;;;;;7.00;6.25;;;;;25.49;50.44;101184.81;5081221;27;45543;-73
2023/06/22 00:45:23;;;;;;;;;6.00;5.50;;;;;25.48;50.47;101177.69;5071915;28;45383;-74
2023/06/22 00:47:52;;;;;;;;;4.25;4.25;;;;;25.47;50.25;101175.97;5071399;27;45492;-74
2023/06/22 00:50:23;;;;;;;;;4.75;4.50;;;;;25.32;50.45;101147.31;5071585;28;45484;-74
2023/06/22 00:52:52;;;;;;;;;6.75;6.75;;;;;25.43;50.54;101170.88;5070633;28;45380;-74
2023/06/22 00:55:20;;;;;;;;;4.25;4.25;;;;;25.35;50.68;101174.81;5075115;27;45596;-73
2023/06/22 00:57:47;;;;;;;;;7.25;5.25;;;;;25.31;51.02;101175.91;5072203;28;46227;-72
2023/06/22 01:00:20;;;;;;;;;7.00;6.75;;;;;25.31;50.50;101175.91;5077588;27;46049;-75
2023/06/22 01:02:46;;;;;;;;;6.75;5.00;;;;;25.25;51.18;101173.59;5086288;27;45585;-73
2023/06/22 01:05:20;;;;;;;;;6.00;6.00;;;;;25.18;50.72;101167.66;5085760;27;45680;-73
2023/06/22 01:07:59;;;;;;;;;6.25;5.00;;;;;25.24;50.63;101171.81;5091894;27;45523;-73
2023/06/22 01:10:36;;;;;;;;;8.00;5.00;;;;;25.18;51.06;101156.94;5092489;27;45752;-73
2023/06/22 01:13:07;;;;;;;;;4.00;4.00;;;;;25.22;50.83;101168.34;5093305;27;45806;-72
2023/06/22 01:15:51;;;;;;;;;5.25;5.00;;;;;25.15;50.48;101142.78;5096230;27;45690;-73
2023/06/22 01:18:19;;;;;;;;;5.25;4.50;;;;;25.23;50.89;101150.50;5094194;27;45726;-73
2023/06/22 01:20:45;;;;;;;;;4.75;4.75;;;;;25.21;50.75;101144.34;5094397;27;45489;-72
2023/06/22 01:23:33;;;;;;;;;4.00;4.00;;;;;25.15;50.52;101143.69;5092689;27;45433;-73
2023/06/22 01:26:37;;;;;;;;;8.00;5.50;;;;;25.20;50.96;101138.13;5094996;27;45384;-74
2023/06/22 01:29:04;;;;;;;;;5.25;5.25;;;;;25.14;50.53;101147.28;5097533;27;45453;-74
2023/06/22 01:31:32;;;;;;;;;4.75;4.75;;;;;24.95;50.77;101117.06;5094161;27;45732;-72
2023/06/22 01:34:05;;;;;;;;;4.75;4.75;;;;;25.02;51.19;101137.22;5127601;27;45509;-72
2023/06/22 01:36:32;;;;;;;;;5.00;5.00;;;;;25.05;50.78;101138.88;5094020;27;45475;-73
2023/06/22 01:38:59;;;;;;;;;6.75;4.25;;;;;25.06;50.79;101130.75;5130192;27;46297;-73
2023/06/22 01:41:31;;;;;;;;;4.75;4.75;;;;;25.05;50.60;101129.00;5097547;27;45476;-73
2023/06/22 01:43:59;;;;;;;;;6.00;4.25;;;;;24.96;50.91;101127.69;5093826;27;45498;-73
2023/06/22 01:46:25;;;;;;;;;6.00;4.50;;;;;24.76;51.53;101112.63;5094107;27;45480;-73
2023/06/22 01:48:52;;;;;;;;;5.00;5.00;;;;;24.73;51.50;101110.13;5092351;27;46188;-73
2023/06/22 01:51:18;;;;;;;;;9.25;5.50;;;;;24.83;50.82;101120.38;5093924;27;45384;-73
2023/06/22 01:53:43;;;;;;;;;6.00;6.00;;;;;24.75;51.45;101115.41;5097233;27;45433;-73
2023/06/22 01:56:10;;;;;;;;;8.75;6.75;;;;;24.49;51.76;101089.97;5096043;27;45373;-73
2023/06/22 01:58:42;;;;;;;;;6.00;5.00;;;;;24.19;51.47;101031.63;5093842;27;45377;-72
2023/06/22 02:01:13;;;;;;;;;8.67;7.00;;;;;24.63;51.81;101099.94;5077763;27;45497;-73
2023/06/22 02:03:47;;;;;;;;;6.67;6.67;;;;;24.72;51.18;101112.88;5062889;28;45477;-73
2023/06/22 02:06:28;;;;;;;;;6.00;6.00;;;;;24.53;51.44;101084.34;5071102;28;45317;-74
2023/06/22 02:09:00;;;;;;;;;4.33;4.33;;;;;24.65;51.10;101100.75;5073854;27;45366;-74
2023/06/22 02:11:29;;;;;;;;;7.50;6.00;;;;;24.62;51.25;101096.41;5071994;28;45434;-74
2023/06/22 02:13:58;;;;;;;;;5.75;4.75;;;;;24.68;51.33;101108.63;5073964;27;45951;-73
2023/06/22 02:16:23;;;;;;;;;5.25;5.25;;;;;24.73;51.41;101119.97;5079073;27;45402;-73
2023/06/22 02:18:53;;;;;;;;;5.25;5.25;;;;;24.72;51.17;101113.72;5077469;27;45417;-75
2023/06/22 02:21:20;;;;;;;;;4.00;4.00;;;;;24.76;51.18;101122.50;5076305;27;45315;-74
2023/06/22 02:23:46;;;;;;;;;5.00;5.00;;;;;24.79;51.12;101116.09;5076657;27;45408;-74
2023/06/22 02:26:12;;;;;;;;;8.50;6.00;;;;;24.52;51.40;101076.41;5075725;28;45863;-74
2023/06/22 02:28:39;;;;;;;;;6.25;5.75;;;;;24.51;51.23;101069.31;5076782;27;46183;-74
2023/06/22 02:31:04;;;;;;;;;6.00;5.00;;;;;24.74;51.42;101110.97;5076291;27;45351;-74
2023/06/22 02:33:30;;;;;;;;;4.25;4.00;;;;;24.67;51.09;101077.41;5079436;27;45398;-74
2023/06/22 02:35:59;;;;;;;;;8.25;5.00;;;;;24.52;51.27;101060.34;5076637;27;45440;-74
2023/06/22 02:38:26;;;;;;;;;5.00;5.00;;;;;24.67;51.04;101088.13;5076574;27;46478;-74
2023/06/22 02:40:51;;;;;;;;;5.50;4.25;;;;;24.64;51.01;101074.91;5075984;27;45423;-74
2023/06/22 02:43:17;;;;;;;;;4.75;4.00;;;;;24.80;51.08;101094.59;5076270;28;45391;-73
2023/06/22 02:45:43;;;;;;;;;6.50;5.00;;;;;24.65;50.85;101079.31;5076101;27;45555;-74
2023/06/22 02:48:13;;;;;;;;;6.00;6.00;;;;;24.63;50.68;101095.47;5079443;27;46157;-74
2023/06/22 02:50:39;;;;;;;;;6.00;5.00;;;;;24.50;51.43;101099.72;5076409;27;45448;-74
2023/06/22 02:53:04;;;;;;;;;3.33;3.33;;;;;24.09;51.38;101060.66;5076160;28;45471;-75
2023/06/22 02:55:31;;;;;;;;;6.67;5.00;;;;;24.13;51.52;101090.78;5076139;28;45471;-74
2023/06/22 02:57:59;;;;;;;;;6.33;5.33;;;;;24.17;52.11;101110.25;5074710;28;46786;-74
2023/06/22 03:00:30;;;;;;;;;5.33;4.33;;;;;24.19;52.53;101111.06;5075937;27;45607;-73
2023/06/22 03:02:57;;;;;;;;;6.67;6.67;;;;;23.98;51.99;101076.34;5076419;27;45327;-74
2023/06/22 03:05:23;;;;;;;;;6.00;5.67;;;;;24.16;51.88;101100.50;5076894;28;45621;-74
2023/06/22 03:07:49;;;;;;;;;6.00;6.00;;;;;24.11;52.22;101101.59;5079907;28;45505;-73
2023/06/22 03:10:15;;;;;;;;;5.00;5.00;;;;;24.10;52.14;101094.47;5080081;27;45431;-74
2023/06/22 03:12:45;;;;;;;;;6.67;6.33;;;;;23.82;52.21;101033.41;5076942;28;45429;-74
2023/06/22 03:15:12;;;;;;;;;7.00;4.67;;;;;24.02;52.01;101043.16;5075867;28;45666;-74
2023/06/22 03:17:39;;;;;;;;;3.33;3.00;;;;;24.09;51.77;101047.28;5079849;28;45417;-75
2023/06/22 03:20:12;;;;;;;;;7.00;5.00;;;;;24.05;52.10;101053.72;5076931;28;45670;-74
2023/06/22 03:22:39;;;;;;;;;5.67;5.33;;;;;24.11;52.28;101052.56;5075580;28;45476;-73
2023/06/22 03:25:10;;;;;;;;;6.33;6.33;;;;;23.98;52.16;101024.66;5074442;28;45394;-73
2023/06/22 03:27:40;;;;;;;;;5.00;5.00;;;;;24.10;52.17;101037.44;5074878;28;45804;-73
2023/06/22 03:30:08;;;;;;;;;6.33;6.33;;;;;23.85;52.04;101001.19;5074829;28;45511;-75
2023/06/22 03:32:34;;;;;;;;;5.00;5.00;;;;;24.22;51.98;101062.72;5079590;28;45347;-72
2023/06/22 03:35:00;;;;;;;;;6.33;5.00;;;;;24.24;51.63;101060.84;5080031;28;45247;-73
2023/06/22 03:37:29;;;;;;;;;6.33;5.00;;;;;24.25;51.71;101060.78;5077159;28;45503;-73
2023/06/22 03:39:55;;;;;;;;;7.00;5.00;;;;;24.14;51.58;101036.34;5074338;28;45488;-73
2023/06/22 03:42:21;;;;;;;;;5.67;5.67;;;;;24.26;51.57;101048.25;5075246;27;45515;-73
2023/06/22 03:44:47;;;;;;;;;6.00;5.67;;;;;;;;5076517;28;45299;-73
2023/06/22 03:47:13;;;;;;;;;6.00;5.00;;;;;24.32;52.15;101051.47;5076934;28;45488;-74
2023/06/22 03:49:42;;;;;;;;;5.50;4.75;;;;;24.33;51.96;101055.88;5076827;28;45364;-74
2023/06/22 03:52:07;;;;;;;;;6.00;6.00;;;;;24.34;51.47;101054.97;5076781;28;45650;-72
2023/06/22 03:54:33;;;;;;;;;5.00;4.50;;;;;24.31;51.41;101047.06;5077063;28;45528;-74
2023/06/22 03:56:59;;;;;;;;;6.00;5.67;;;;;24.31;51.08;101040.84;5076573;28;45702;-72
2023/06/22 03:59:25;;;;;;;;;6.33;5.00;;;;;24.15;51.84;101013.97;5074694;27;45848;-74
2023/06/22 04:01:51;;;;;;;;;5.00;4.33;;;;;24.39;51.44;101057.38;5076443;28;45511;-74
2023/06/22 04:04:20;;;;;;;;;4.67;4.67;;;;;24.36;51.69;101054.84;5079447;28;45675;-74
2023/06/22 04:06:46;;;;;;;;;8.00;6.00;;;;;24.39;51.75;101062.72;5075546;28;46111;-73
2023/06/22 04:09:16;;;;;;;;;5.67;4.33;;;;;24.15;51.67;101018.47;5074280;27;45543;-74
2023/06/22 04:11:42;;;;;;;;;3.00;3.00;;;;;24.41;51.35;101063.50;5074755;27;45554;-75
2023/06/22 04:14:07;;;;;;;;;5.33;5.33;;;;;24.03;51.50;100999.41;5076901;27;45707;-74
2023/06/22 04:16:33;;;;;;;;;4.33;4.00;;;;;24.26;51.41;101037.53;5077003;28;45857;-73
2023/06/22 04:18:59;;;;;;;;;6.00;6.00;;;;;24.42;51.67;101067.09;5075303;27;45406;-74
2023/06/22 04:21:25;;;;;;;;;8.00;5.00;;;;;24.21;51.75;101040.44;5076644;27;45473;-75
2023/06/22 04:23:51;;;;;;;;;9.00;6.00;;;;;24.35;52.06;101058.50;5074395;28;45573;-74
2023/06/22 04:26:20;;;;;;;;;6.00;6.00;;;;;24.42;52.65;101061.72;5076099;28;45228;-73
2023/06/22 04:28:51;;;;;;;;;7.25;6.00;;;;;24.40;52.15;101077.00;5077935;28;45367;-75
2023/06/22 04:31:20;;;;;;;;;4.00;4.00;;;;;24.39;52.30;101068.06;5075305;27;45456;-74
2023/06/22 04:33:47;;;;;;;;;7.33;6.00;;;;;24.20;52.73;101032.47;5076418;28;45635;-73
2023/06/22 04:36:14;;;;;;;;;8.00;6.00;;;;;24.13;55.63;101050.66;5078908;28;45555;-74
2023/06/22 04:38:42;;;;;;;;;7.00;7.00;;;;;24.07;55.86;101059.00;5076774;27;45303;-74
2023/06/22 04:41:10;;;;;;;;;8.33;6.00;;;;;24.00;56.30;101077.16;5072445;28;45460;-74
2023/06/22 04:43:35;;;;;;;;;8.67;6.33;;;;;23.81;56.45;101061.13;5074301;27;45890;-75
2023/06/22 04:46:03;;;;;;;;;10.67;7.00;;;;;23.81;56.53;101074.50;5073928;27;45809;-74
2023/06/22 04:48:32;;;;;;;;;10.00;7.33;;;;;23.49;57.62;101058.16;5075936;28;45460;-73
2023/06/22 04:51:03;;;;;;;;;7.33;7.00;;;;;23.40;57.05;101053.22;5078559;27;45575;-73
2023/06/22 04:53:29;;;;;;;;;6.67;5.67;;;;;23.38;57.27;101040.88;5078888;27;45479;-74
2023/06/22 04:55:56;;;;;;;;;7.33;5.00;;;;;23.45;58.70;101069.06;5076944;28;47587;-74
2023/06/22 04:58:21;;;;;;;;;8.67;6.67;;;;;23.01;58.61;101000.66;5076768;28;45512;-74
2023/06/22 05:00:47;;;;;;;;;7.33;6.67;;;;;23.36;58.62;101048.97;5076871;28;45795;-73
2023/06/22 05:03:13;;;;;;;;;8.33;7.67;;;;;23.46;58.74;101068.09;5074849;27;45618;-74
2023/06/22 05:05:41;;;;;;;;;5.67;5.67;;;;;23.34;59.69;101077.56;5073918;27;46118;-74
2023/06/22 05:08:07;;;;;;;;;10.67;7.00;;;;;23.18;60.63;101082.75;5072549;28;45666;-73
2023/06/22 05:10:33;;;;;;;;;9.00;8.00;;;;;22.99;61.13;101073.81;5076054;28;45673;-74
2023/06/22 05:12:59;;;;;;;;;7.33;7.33;;;;;22.76;61.11;101051.63;5076516;27;45364;-73
2023/06/22 05:15:30;;;;;;;;;11.00;8.00;;;;;22.88;61.07;101073.41;5074060;27;45726;-74
2023/06/22 05:17:59;;;;;;;;;12.00;7.67;;;;;22.88;62.08;101081.41;5074493;27;45738;-74
2023/06/22 05:20:25;;;;;;;;;9.00;6.33;;;;;22.83;61.16;101071.78;5074197;27;45582;-75
2023/06/22 05:22:51;;;;;;;;;9.67;8.00;;;;;22.78;62.29;101059.56;5073822;27;45406;-74
2023/06/22 05:25:16;;;;;;;;;8.33;8.33;;;;;22.94;62.94;101073.97;5074217;28;47453;-74
2023/06/22 05:27:46;;;;;;;;;10.33;7.67;;;;;22.79;63.36;101058.63;5076973;27;45318;-73
2023/06/22 05:30:16;;;;;;;;;15.67;11.33;;;;;22.72;62.40;101047.34;5078200;27;45461;-75
2023/06/22 05:32:41;;;;;;;;;8.33;8.33;;;;;22.75;62.78;101055.22;5078165;27;45219;-75
2023/06/22 05:35:07;;;;;;;;;6.33;6.33;;;;;22.83;62.50;101061.09;5078059;27;45452;-74
2023/06/22 05:37:33;;;;;;;;;11.00;7.67;;;;;22.80;61.71;101015.84;5078037;28;45359;-74
2023/06/22 05:39:58;;;;;;;;;9.00;6.00;;;;;23.06;61.35;101051.22;5076727;28;45385;-74
2023/06/22 05:42:25;;;;;;;;;9.33;8.00;;;;;23.08;60.50;101038.66;5077878;28;45392;-75
2023/06/22 05:44:53;;;;;;;;;7.00;7.00;;;;;23.23;60.57;101059.34;5077994;28;45732;-75
2023/06/22 05:47:18;;;;;;;;;7.33;7.33;;;;;23.19;60.19;101040.88;5077273;27;45353;-75
2023/06/22 05:49:44;;;;;;;;;10.00;7.67;;;;;23.24;60.66;101042.38;5073154;28;45310;-74
2023/06/22 05:52:13;;;;;;;;;12.33;9.00;;;;;23.29;60.63;101039.50;5077002;28;45661;-74
2023/06/22 05:54:38;;;;;;;;;10.33;7.33;;;;;23.40;60.36;101047.03;5076927;27;45689;-74
2023/06/22 05:57:04;;;;;;;;;10.67;9.67;;;;;23.24;61.59;101028.16;5075387;28;45434;-74
2023/06/22 05:59:30;;;;;;;;;10.67;9.33;;;;;23.42;60.73;101047.78;5076915;27;45524;-73
2023/06/22 06:01:58;;;;;;;;;12.00;9.00;;;;;23.39;60.60;101039.94;5076009;28;45773;-76
2023/06/22 06:04:24;;;;;;;;;9.67;9.67;;;;;23.24;60.47;101009.44;5078234;28;46761;-74
2023/06/22 06:06:50;;;;;;;;;10.00;10.00;;;;;23.48;60.32;101050.19;5076354;27;45589;-73
2023/06/22 06:09:15;;;;;;;;;12.33;10.00;;;;;23.49;60.43;101044.78;5077592;27;45492;-74
2023/06/22 06:11:41;;;;;;;;;12.00;10.33;;;;;23.52;60.68;101056.28;5079508;28;45736;-74
2023/06/22 06:14:06;;;;;;;;;11.67;9.67;;;;;23.20;60.65;100984.66;5079514;28;45912;-73
2023/06/22 06:16:32;;;;;;;;;12.00;10.67;;;;;23.49;60.66;101042.13;5076376;27;45359;-74
2023/06/22 06:18:58;;;;;;;;;12.67;11.00;;;;;23.52;60.71;101043.78;5078109;27;45329;-76
2023/06/22 06:21:24;;;;;;;;;11.00;8.33;;;;;23.22;61.27;101003.31;5079304;27;45535;-74
2023/06/22 06:23:50;;;;;;;;;13.33;11.33;;;;;23.33;61.09;101019.72;5076541;28;45539;-74
2023/06/22 06:26:16;;;;;;;;;14.00;12.00;;;;;23.37;61.33;101025.75;5076440;27;45507;-74
2023/06/22 06:28:43;;;;;;;;;9.00;6.67;;;;;23.06;61.22;100990.66;5076632;27;45527;-74
2023/06/22 06:31:09;;;;;;;;;14.00;10.67;;;;;23.11;60.94;101002.94;5067739;27;45654;-73
2023/06/22 06:33:36;;;;;;;;;12.67;11.00;;;;;23.48;61.12;101066.22;5068094;28;46015;-75
2023/06/22 06:36:03;;;;;;;;;15.67;15.67;;;;;23.45;62.95;101061.03;5060695;28;45535;-74
2023/06/22 06:38:30;;;;;;;;;13.33;11.67;;;;;23.21;62.74;101041.66;5060453;28;45512;-74
2023/06/22 06:40:58;;;;;;;;;11.00;9.67;;;;;23.29;62.77;101055.53;5055453;28;45583;-74
2023/06/22 06:43:30;;;;;;;;;13.33;11.67;;;;;23.22;62.16;101038.91;5055163;28;46018;-74
2023/06/22 06:45:58;;;;;;;;;12.00;12.00;;;;;23.04;62.40;100997.00;5055847;28;45380;-75
2023/06/22 06:48:24;;;;;;;;;11.67;11.67;;;;;23.34;62.41;101044.63;5055964;28;45426;-74
2023/06/22 06:50:50;;;;;;;;;15.67;12.67;;;;;23.37;62.53;101034.69;5056028;28;45549;-74
2023/06/22 06:53:15;;;;;;;;;21.00;13.67;;;;;23.27;62.89;101020.84;5058012;28;46078;-75
2023/06/22 06:55:41;;;;;;;;;14.67;12.67;;;;;22.96;62.82;100973.28;5059961;28;45418;-74
2023/06/22 06:58:09;;;;;;;;;11.00;10.67;;;;;23.33;62.66;101038.41;5060172;28;45406;-74
2023/06/22 07:00:35;;;;;;;;;15.67;13.33;;;;;23.24;62.53;101021.00;5058839;28;45550;-73
2023/06/22 07:03:01;;;;;;;;;10.33;10.33;;;;;23.29;62.56;101031.47;5057775;28;46522;-74
2023/06/22 07:05:30;;;;;;;;;14.33;11.33;;;;;23.08;62.65;100987.91;5066744;28;45420;-74
2023/06/22 07:07:59;;;;;;;;;18.00;13.67;;;;;23.28;63.11;101019.06;5080261;27;45531;-74
2023/06/22 07:10:25;;;;;;;;;14.67;13.67;;;;;23.28;62.70;101024.41;5076900;27;45443;-74
2023/06/22 07:12:51;;;;;;;;;16.67;14.67;;;;;23.27;62.81;101028.84;5074500;28;48028;-73
2023/06/22 07:15:16;;;;;;;;;17.33;13.67;;;;;22.97;62.96;100969.69;5077116;27;45587;-74
2023/06/22 07:17:44;;;;;;;;;15.33;13.33;;;;;23.21;63.09;101015.81;5068413;28;45485;-74
2023/06/22 07:20:11;;;;;;;;;16.33;12.00;;;;;23.05;62.43;100980.91;5059671;28;45469;-73
2023/06/22 07:22:44;;;;;;;;;16.00;16.00;;;;;23.36;62.58;101026.72;5059379;28;45393;-72
2023/06/22 07:25:14;;;;;;;;;13.33;12.33;;;;;23.35;62.52;101019.63;5067710;28;45671;-74
2023/06/22 07:27:45;;;;;;;;;17.67;14.33;;;;;23.41;62.22;101006.84;5074347;27;45492;-74
2023/06/22 07:30:12;;;;;;;;;19.67;14.67;;;;;23.35;61.96;100983.09;5076154;27;45235;-71
2023/06/22 07:32:37;;;;;;;;;12.33;11.00;;;;;23.45;61.77;100972.81;5077666;27;45398;-73
2023/06/22 07:35:04;;;;;;;;;16.67;12.33;;;;;23.64;61.43;100999.53;5079293;27;45464;-73
2023/06/22 07:37:30;;;;;;;;;17.00;14.67;;;;;23.56;61.59;100993.69;5079658;27;45370;-73
2023/06/22 07:40:00;;;;;;;;;17.67;13.67;;;;;23.52;61.74;100973.41;5078697;27;45754;-73
2023/06/22 07:42:28;;;;;;;;;17.33;15.67;;;;;23.48;61.50;100960.16;5073588;28;47411;-73
2023/06/22 07:44:58;;;;;;;;;16.67;16.33;;;;;23.76;61.89;101000.78;5082277;27;45967;-73
2023/06/22 07:47:27;;;;;;;;;17.00;15.67;;;;;23.71;61.58;100999.16;5096469;27;45423;-74
2023/06/22 07:49:55;;;;;;;;;18.00;14.33;;;;;23.55;61.85;100979.44;5096148;27;45407;-72
2023/06/22 07:52:21;;;;;;;;;15.67;14.00;;;;;23.77;61.74;101013.22;5095438;27;45806;-73
2023/06/22 07:54:46;;;;;;;;;12.00;10.67;;;;;23.77;61.41;101011.38;5095043;27;45357;-76
2023/06/22 07:57:15;;;;;;;;;17.67;13.67;;;;;23.66;61.67;100992.31;5095638;27;45456;-74
2023/06/22 07:59:42;;;;;;;;;20.00;16.00;;;;;23.64;61.71;100988.84;5097662;27;45399;-74
2023/06/22 08:02:09;;;;;;;;;18.00;15.33;;;;;23.79;61.66;101019.34;5076164;27;46789;-75
2023/06/22 08:04:34;;;;;;;;;17.33;13.33;;;;;23.70;61.84;100997.44;5076690;28;45510;-75
2023/06/22 08:07:01;;;;;;;;;18.33;14.67;;;;;23.83;62.11;101016.44;5073827;28;45672;-74
2023/06/22 08:09:32;;;;;;;;;14.33;13.67;;;;;23.86;62.42;101031.47;5074691;27;45507;-74
2023/06/22 08:12:00;;;;;;;;;22.67;17.67;;;;;23.87;61.67;101025.19;5075775;28;46767;-82
2023/06/22 08:14:27;;;;;;;;;15.33;14.33;;;;;23.89;61.82;101021.53;5079389;27;45669;-83
2023/06/22 08:16:55;;;;;;;;;15.67;15.00;;;;;23.97;62.01;101026.47;5079486;27;45519;-82
2023/06/22 08:19:21;;;;;;;;;22.00;19.00;;;;;23.96;61.87;101032.75;5077893;28;45479;-76
2023/06/22 08:21:47;;;;;;;;;14.33;14.33;;;;;23.90;61.68;101012.53;5075149;27;46285;-70
2023/06/22 08:24:12;;;;;;;;;23.33;18.67;;;;;23.91;61.64;101026.78;5090166;27;45453;-74
2023/06/22 08:26:39;;;;;;;;;20.67;17.33;;;;;23.90;62.21;101030.41;5089975;27;46122;-75
2023/06/22 08:29:05;;;;;;;;;18.00;15.33;;;;;23.87;61.85;101026.06;5074053;28;45405;-79
2023/06/22 08:31:38;;;;;;;;;18.00;15.67;;;;;23.91;62.13;101024.09;5075555;27;46115;-73
2023/06/22 08:34:07;;;;;;;;;14.67;13.33;;;;;23.89;61.52;101025.97;5075608;27;45535;-74
2023/06/22 08:36:41;;;;;;;;;18.00;16.00;;;;;23.93;61.73;101030.25;5054976;28;45373;-73
2023/06/22 08:39:08;;;;;;;;;18.67;13.67;;;;;23.90;62.11;101025.06;5053438;28;46020;-76
2023/06/22 08:41:34;;;;;;;;;20.33;20.00;;;;;23.99;61.69;101032.63;5055904;28;45553;-78
2023/06/22 08:44:03;;;;;;;;;16.00;15.67;;;;;24.03;62.25;101033.31;5054498;28;45538;-75
2023/06/22 08:46:31;;;;;;;;;15.00;12.67;;;;;24.05;62.25;101029.63;5053477;28;45363;-76
2023/06/22 08:48:59;;;;;;;;;17.33;16.00;;;;;24.09;62.22;101027.69;5055361;28;45357;-80
2023/06/22 08:51:25;;;;;;;;;23.00;16.67;;;;;24.04;62.01;101011.84;5053003;28;47024;-79
2023/06/22 08:53:51;;;;;;;;;22.00;18.00;;;;;24.17;61.82;101028.16;5054143;28;45475;-73
2023/06/22 08:56:16;;;;;;;;;18.67;16.33;;;;;24.15;62.03;101026.50;5054192;28;45798;-71
2023/06/22 08:58:45;;;;;;;;;17.67;17.33;;;;;24.12;61.92;101031.06;5056197;27;45534;-72
2023/06/22 09:01:15;;;;;;;;;16.00;15.00;;;;;24.15;61.78;101026.50;5075518;27;46183;-74
2023/06/22 09:03:42;;;;;;;;;18.00;16.00;;;;;24.18;61.97;101019.19;5074685;27;45283;-72
2023/06/22 09:06:13;;;;;;;;;17.67;16.33;;;;;24.08;62.00;101013.44;5074717;27;45369;-72
2023/06/22 09:08:39;;;;;;;;;15.33;15.00;;;;;23.68;61.66;100950.28;5073461;28;45535;-73
2023/06/22 09:11:04;;;;;;;;;18.33;16.67;;;;;24.15;62.23;101030.03;5070202;28;46442;-73
2023/06/22 09:13:31;;;;;;;;;18.00;17.00;;;;;24.18;61.52;101029.91;5071460;28;45821;-73
2023/06/22 09:16:00;;;;;;;;;19.33;14.67;;;;;24.08;62.11;101023.25;5074663;28;45318;-76
2023/06/22 09:18:26;;;;;;;;;16.00;14.00;;;;;23.96;62.34;101019.38;5073853;28;45618;-74
2023/06/22 09:20:51;;;;;;;;;16.33;16.33;;;;;23.94;62.40;101001.69;5074459;28;46299;-73
2023/06/22 09:23:17;;;;;;;;;21.00;18.00;;;;;24.05;61.96;101026.94;5072447;28;45437;-77
2023/06/22 09:25:42;;;;;;;;;16.33;16.33;;;;;24.07;62.58;101038.44;5072283;27;45752;-71
2023/06/22 09:28:08;;;;;;;;;22.00;20.33;;;;;24.04;62.29;101043.97;5079010;28;45469;-73
2023/06/22 09:30:34;;;;;;;;;18.67;15.33;;;;;24.02;61.97;101036.97;5078182;27;45551;-76
2023/06/22 09:33:01;;;;;;;;;20.00;16.33;;;;;23.91;62.60;101030.31;5077258;28;45695;-73
2023/06/22 09:35:29;;;;;;;;;16.33;16.33;;;;;23.79;62.56;101022.88;5075538;27;45399;-74
2023/06/22 09:38:00;;;;;;;;;21.67;15.33;;;;;23.55;62.57;100992.81;5075188;27;45841;-74
2023/06/22 09:40:29;;;;;;;;;17.00;16.33;;;;;23.87;62.59;101055.50;5072657;28;47670;-75
2023/06/22 09:42:55;;;;;;;;;17.67;16.33;;;;;23.85;62.42;101044.00;5073256;28;45693;-73
2023/06/22 09:45:21;;;;;;;;;20.33;17.00;;;;;23.60;62.33;101024.69;5074767;27;45354;-75
2023/06/22 09:47:46;;;;;;;;;18.00;15.00;;;;;23.82;62.60;101065.53;5076461;28;45389;-79
2023/06/22 09:50:13;;;;;;;;;19.33;19.33;;;;;23.49;62.80;101009.13;5077053;27;45409;-76
2023/06/22 09:52:38;;;;;;;;;16.33;15.00;;;;;23.68;62.76;101051.91;5078742;27;45452;-76
2023/06/22 09:55:04;;;;;;;;;16.67;15.67;;;;;23.62;62.15;101049.56;5076268;28;45500;-74
2023/06/22 09:57:30;;;;;;;;;21.00;15.67;;;;;23.57;62.86;101033.72;5075239;28;45754;-75
2023/06/22 09:59:58;;;;;;;;;17.00;14.67;;;;;23.61;62.67;101040.66;5078059;27;46617;-74
2023/06/22 10:02:24;;;;;;;;;24.67;21.67;;;;;23.78;62.39;101063.97;5074936;27;45457;-75
2023/06/22 10:04:50;;;;;;;;;21.33;15.00;;;;;23.15;62.60;100957.28;5077078;27;45715;-74
2023/06/22 10:07:15;;;;;;;;;14.33;13.33;;;;;23.98;62.39;101078.16;5074798;27;45452;-75
2023/06/22 10:09:41;;;;;;;;;19.00;15.67;;;;;23.94;61.66;101056.03;5073162;28;45420;-77
2023/06/22 10:12:07;;;;;;;;;23.67;18.33;;;;;24.03;61.18;101060.94;5073906;27;45535;-78
2023/06/22 10:14:33;;;;;;;;;25.00;17.67;;;;;23.48;61.43;100970.00;5076233;27;45509;-79
2023/06/22 10:16:59;;;;;;;;;21.67;19.67;;;;;23.97;60.47;101041.66;5075172;28;45525;-77
2023/06/22 10:19:25;;;;;;;;;19.00;14.33;;;;;24.26;60.37;101089.25;5071687;28;46511;-77
2023/06/22 10:21:51;;;;;;;;;14.00;14.00;;;;;23.55;59.74;100950.03;5073680;28;45437;-78
2023/06/22 10:24:17;;;;;;;;;21.67;17.00;;;;;24.24;59.25;101069.72;5073696;27;45352;-78
2023/06/22 10:26:43;;;;;;;;;14.00;13.33;;;;;24.42;59.44;101094.72;5074422;27;45322;-78
2023/06/22 10:29:08;;;;;;;;;21.00;15.67;;;;;24.27;59.19;101068.69;5076406;27;46514;-78
2023/06/22 10:31:34;;;;;;;;;16.33;16.33;;;;;24.18;59.47;101050.41;5073257;27;45426;-77
2023/06/22 10:33:59;;;;;;;;;18.00;14.67;;;;;24.48;58.82;101098.91;5073280;27;45560;-76
2023/06/22 10:36:26;;;;;;;;;18.00;14.00;;;;;24.45;58.72;101072.28;5073183;27;45566;-76
2023/06/22 10:38:53;;;;;;;;;18.00;15.33;;;;;24.52;59.32;101087.97;5075965;27;45531;-77
2023/06/22 10:41:18;;;;;;;;;12.00;11.33;;;;;24.70;58.82;101102.25;5076768;27;45506;-75
2023/06/22 10:43:44;;;;;;;;;15.67;13.33;;;;;24.79;58.04;101100.88;5078064;27;45389;-76
2023/06/22 10:46:10;;;;;;;;;17.67;13.00;;;;;24.64;58.21;101070.41;5081304;27;45358;-74
2023/06/22 10:48:36;;;;;;;;;13.33;13.33;;;;;24.93;58.38;101094.81;5077991;27;45449;-77
2023/06/22 10:51:02;;;;;;;;;5.33;2.00;;;;;24.91;57.74;101084.16;5076626;27;45423;-80
2023/06/22 10:53:27;;;;;;;;;17.33;14.33;;;;;24.74;57.38;101068.13;5076948;28;45493;-75
2023/06/22 10:55:54;;;;;;;;;17.00;14.00;;;;;25.00;57.76;101108.78;5078186;27;45338;-76
2023/06/22 10:58:20;;;;;;;;;14.00;13.00;;;;;24.98;57.36;101117.75;5078616;28;48238;-76
2023/06/22 11:00:45;;;;;;;;;13.33;11.67;;;;;25.03;56.68;101122.84;5075409;28;45414;-74
2023/06/22 11:03:13;;;;;;;;;14.00;12.00;;;;;25.11;56.18;101134.06;5075223;28;45444;-73
2023/06/22 11:05:41;;;;;;;;;15.67;12.33;;;;;25.32;55.77;101133.91;5076441;28;45872;-74
2023/06/22 11:08:06;;;;;;;;;10.00;9.00;;;;;25.52;55.53;101131.00;5078895;28;47886;-73
2023/06/22 11:10:32;;;;;;;;;11.33;10.00;;;;;25.80;55.54;101145.59;5078156;28;45501;-76
2023/06/22 11:12:58;;;;;;;;;12.00;12.00;;;;;25.89;55.05;101147.81;5076934;28;45419;-77
2023/06/22 11:15:25;;;;;;;;;15.67;13.00;;;;;25.89;54.00;101131.72;5078952;28;45417;-74
2023/06/22 11:17:53;;;;;;;;;14.00;13.00;;;;;25.87;53.97;101138.97;5084692;27;47501;-72